PWSweather.com
Personal Weather Stations
Station Observations
IPOMMEUS2
PommeuseFR 77515

PommeuseFR 77515

Lat: 48.805, Lon: 3.015

Elevation: 0

Station Type: Oregon Scientific WMRS200

http://meteo.glou-prods.net/

High Low Average
Temperature 69.6°F20.9°C 44.4°F6.9°C 56.0°F13.3°C
Dew Point 52.5°F11.4°C 41.2°F5.1°C 46.4°F8.0°C
Winds 4.7 mph 7.6 kmh 0.2 mph 0.3 kmh 2.0 mph SE3.2 kmh SE
Wind Gusts 14.8 mph23.8 kmh -- 4.0 mph6.4 kmh
Humidity 97% 38% 74%
Pressure 29.77 in1008.1 mb 29.65 in1004.1 mb -
Precipitation 0.54 in13.7 mm - -
Hour Temp Dew Point Humidity Winds Wind Gusts Pressure Precip Precip Rate Daily Precip Total
12:03 AM 45.5°F7.5°C 41.5°F5.3°C 86% - E16091.8 kmh E 0.9 mph1.4 kmh 29.71 in1006.1 mb 0.00 in0.0 mm 0.00 in/hr0.0 mm/hr 0.00 in0.0 mm
12:13 AM 45.3°F7.4°C 41.4°F5.2°C 86% - E16091.8 kmh E -- 29.71 in1006.1 mb 0.00 in0.0 mm 0.00 in/hr0.0 mm/hr 0.00 in0.0 mm
12:23 AM 45.3°F7.4°C 41.7°F5.4°C 87% - E16091.8 kmh E -- 29.71 in1006.1 mb 0.00 in0.0 mm 0.00 in/hr0.0 mm/hr 0.00 in0.0 mm
12:33 AM 45.0°F7.2°C 41.5°F5.3°C 88% - E16091.8 kmh E -- 29.71 in1006.1 mb 0.00 in0.0 mm 0.00 in/hr0.0 mm/hr 0.00 in0.0 mm
12:43 AM 44.8°F7.1°C 41.4°F5.2°C 88% - E16091.8 kmh E -- 29.73 in1006.8 mb 0.00 in0.0 mm 0.00 in/hr0.0 mm/hr 0.00 in0.0 mm
12:53 AM 44.6°F7.0°C 41.2°F5.1°C 88% - E16091.8 kmh E -- 29.74 in1007.1 mb 0.00 in0.0 mm 0.00 in/hr0.0 mm/hr 0.00 in0.0 mm
01:03 AM 44.4°F6.9°C 41.4°F5.2°C 89% - E16091.8 kmh E -- 29.74 in1007.1 mb 0.00 in0.0 mm 0.00 in/hr0.0 mm/hr 0.00 in0.0 mm
01:13 AM 44.8°F7.1°C 42.1°F5.6°C 90% - E16091.8 kmh E 0.9 mph1.4 kmh 29.74 in1007.1 mb 0.00 in0.0 mm 0.00 in/hr0.0 mm/hr 0.00 in0.0 mm
01:23 AM 45.3°F7.4°C 42.8°F6.0°C 91% - E16091.8 kmh E -- 29.74 in1007.1 mb 0.00 in0.0 mm 0.00 in/hr0.0 mm/hr 0.00 in0.0 mm
01:33 AM 45.7°F7.6°C 43.5°F6.4°C 92% - E16091.8 kmh E -- 29.74 in1007.1 mb 0.00 in0.0 mm 0.00 in/hr0.0 mm/hr 0.00 in0.0 mm
01:43 AM 45.9°F7.7°C 43.7°F6.5°C 92% - E16091.8 kmh E -- 29.76 in1007.8 mb 0.00 in0.0 mm 0.00 in/hr0.0 mm/hr 0.00 in0.0 mm
01:53 AM 46.2°F7.9°C 44.1°F6.7°C 92% - E16091.8 kmh E -- 29.76 in1007.8 mb 0.00 in0.0 mm 0.00 in/hr0.0 mm/hr 0.00 in0.0 mm
02:03 AM 46.4°F8.0°C 44.2°F6.8°C 92% - E16091.8 kmh E -- 29.74 in1007.1 mb 0.00 in0.0 mm 0.00 in/hr0.0 mm/hr 0.00 in0.0 mm
02:13 AM 46.2°F7.9°C 44.1°F6.7°C 92% - E16091.8 kmh E -- 29.74 in1007.1 mb 0.00 in0.0 mm 0.00 in/hr0.0 mm/hr 0.00 in0.0 mm
02:23 AM 46.4°F8.0°C 44.2°F6.8°C 92% - E16091.8 kmh E -- 29.75 in1007.5 mb 0.00 in0.0 mm 0.00 in/hr0.0 mm/hr 0.00 in0.0 mm
02:33 AM 46.2°F7.9°C 44.2°F6.8°C 93% - E16091.8 kmh E -- 29.77 in1008.1 mb 0.00 in0.0 mm 0.00 in/hr0.0 mm/hr 0.00 in0.0 mm
02:43 AM 46.0°F7.8°C 44.1°F6.7°C 93% - E16091.8 kmh E -- 29.75 in1007.5 mb 0.00 in0.0 mm 0.00 in/hr0.0 mm/hr 0.00 in0.0 mm
02:53 AM 45.5°F7.5°C 43.3°F6.3°C 92% - E16091.8 kmh E -- 29.74 in1007.1 mb 0.00 in0.0 mm 0.00 in/hr0.0 mm/hr 0.00 in0.0 mm
03:03 AM 45.1°F7.3°C 43.2°F6.2°C 93% - E16091.8 kmh E -- 29.74 in1007.1 mb 0.00 in0.0 mm 0.00 in/hr0.0 mm/hr 0.00 in0.0 mm
03:13 AM 45.1°F7.3°C 43.2°F6.2°C 93% 0.2 mph SSE0.3 kmh SSE 2.9 mph4.7 kmh 29.74 in1007.1 mb 0.00 in0.0 mm 0.00 in/hr0.0 mm/hr 0.00 in0.0 mm
03:23 AM 44.8°F7.1°C 42.8°F6.0°C 93% - E16091.8 kmh E 1.1 mph1.8 kmh 29.73 in1006.8 mb 0.00 in0.0 mm 0.00 in/hr0.0 mm/hr 0.00 in0.0 mm
03:33 AM 44.8°F7.1°C 42.8°F6.0°C 93% - S16091.8 kmh S 2.0 mph3.2 kmh 29.71 in1006.1 mb 0.00 in0.0 mm 0.00 in/hr0.0 mm/hr 0.00 in0.0 mm
03:43 AM 45.3°F7.4°C 43.7°F6.5°C 94% 0.7 mph S1.1 kmh S 2.7 mph4.3 kmh 29.71 in1006.1 mb 0.00 in0.0 mm 0.00 in/hr0.0 mm/hr 0.00 in0.0 mm
03:53 AM 45.3°F7.4°C 44.1°F6.7°C 95% - E16091.8 kmh E 1.1 mph1.8 kmh 29.71 in1006.1 mb 0.00 in0.0 mm 0.00 in/hr0.0 mm/hr 0.00 in0.0 mm
04:03 AM 44.8°F7.1°C 43.2°F6.2°C 94% - E16091.8 kmh E -- 29.71 in1006.1 mb 0.00 in0.0 mm 0.00 in/hr0.0 mm/hr 0.00 in0.0 mm
04:13 AM 44.4°F6.9°C 42.8°F6.0°C 94% - E16091.8 kmh E -- 29.75 in1007.5 mb 0.00 in0.0 mm 0.00 in/hr0.0 mm/hr 0.00 in0.0 mm
04:23 AM 44.8°F7.1°C 43.2°F6.2°C 94% 0.2 mph WSW0.3 kmh WSW 2.7 mph4.3 kmh 29.76 in1007.8 mb 0.00 in0.0 mm 0.00 in/hr0.0 mm/hr 0.00 in0.0 mm
04:33 AM 45.7°F7.6°C 44.6°F7.0°C 96% 0.2 mph S0.3 kmh S 2.5 mph4.0 kmh 29.74 in1007.1 mb 0.00 in0.0 mm 0.00 in/hr0.0 mm/hr 0.00 in0.0 mm
04:43 AM 46.2°F7.9°C 45.5°F7.5°C 97% - E16091.8 kmh E -- 29.72 in1006.4 mb 0.00 in0.0 mm 0.00 in/hr0.0 mm/hr 0.00 in0.0 mm
04:53 AM 46.0°F7.8°C 45.0°F7.2°C 96% - E16091.8 kmh E -- 29.71 in1006.1 mb 0.00 in0.0 mm 0.00 in/hr0.0 mm/hr 0.00 in0.0 mm
05:03 AM 46.4°F8.0°C 45.3°F7.4°C 96% - E16091.8 kmh E -- 29.71 in1006.1 mb 0.00 in0.0 mm 0.00 in/hr0.0 mm/hr 0.00 in0.0 mm
05:13 AM 46.6°F8.1°C 45.5°F7.5°C 96% - E16091.8 kmh E -- 29.71 in1006.1 mb 0.00 in0.0 mm 0.00 in/hr0.0 mm/hr 0.00 in0.0 mm
05:23 AM 46.6°F8.1°C 45.5°F7.5°C 96% - E16091.8 kmh E -- 29.71 in1006.1 mb 0.00 in0.0 mm 0.00 in/hr0.0 mm/hr 0.00 in0.0 mm
05:33 AM 46.8°F8.2°C 45.7°F7.6°C 96% - E16091.8 kmh E -- 29.71 in1006.1 mb 0.00 in0.0 mm 0.00 in/hr0.0 mm/hr 0.00 in0.0 mm
05:43 AM 46.9°F8.3°C 45.9°F7.7°C 96% - E16091.8 kmh E 1.3 mph2.1 kmh 29.71 in1006.1 mb 0.00 in0.0 mm 0.00 in/hr0.0 mm/hr 0.00 in0.0 mm
05:53 AM 47.1°F8.4°C 46.0°F7.8°C 96% - E16091.8 kmh E 1.1 mph1.8 kmh 29.71 in1006.1 mb 0.00 in0.0 mm 0.00 in/hr0.0 mm/hr 0.00 in0.0 mm
06:03 AM 47.3°F8.5°C 46.2°F7.9°C 96% - E16091.8 kmh E -- 29.71 in1006.1 mb 0.00 in0.0 mm 0.00 in/hr0.0 mm/hr 0.00 in0.0 mm
06:13 AM 47.5°F8.6°C 46.4°F8.0°C 96% 0.4 mph SSE0.6 kmh SSE 2.9 mph4.7 kmh 29.73 in1006.8 mb 0.00 in0.0 mm 0.00 in/hr0.0 mm/hr 0.00 in0.0 mm
06:23 AM 47.8°F8.8°C 47.1°F8.4°C 97% 0.2 mph SSW0.3 kmh SSW 2.5 mph4.0 kmh 29.74 in1007.1 mb 0.00 in0.0 mm 0.00 in/hr0.0 mm/hr 0.00 in0.0 mm
06:33 AM 47.8°F8.8°C 46.8°F8.2°C 96% - E16091.8 kmh E -- 29.74 in1007.1 mb 0.00 in0.0 mm 0.00 in/hr0.0 mm/hr 0.00 in0.0 mm
06:43 AM 47.8°F8.8°C 46.8°F8.2°C 96% - E16091.8 kmh E -- 29.74 in1007.1 mb 0.00 in0.0 mm 0.00 in/hr0.0 mm/hr 0.00 in0.0 mm
06:53 AM 48.2°F9.0°C 47.1°F8.4°C 96% - E16091.8 kmh E 0.9 mph1.4 kmh 29.74 in1007.1 mb 0.00 in0.0 mm 0.00 in/hr0.0 mm/hr 0.00 in0.0 mm
07:03 AM 48.6°F9.2°C 47.5°F8.6°C 96% - E16091.8 kmh E 1.1 mph1.8 kmh 29.74 in1007.1 mb 0.00 in0.0 mm 0.00 in/hr0.0 mm/hr 0.00 in0.0 mm
07:13 AM 48.9°F9.4°C 47.8°F8.8°C 96% - S16091.8 kmh S 1.3 mph2.1 kmh 29.74 in1007.1 mb 0.00 in0.0 mm 0.00 in/hr0.0 mm/hr 0.00 in0.0 mm
07:23 AM 49.5°F9.7°C 48.0°F8.9°C 95% - E16091.8 kmh E -- 29.74 in1007.1 mb 0.00 in0.0 mm 0.00 in/hr0.0 mm/hr 0.00 in0.0 mm
07:33 AM 50.4°F10.2°C 48.9°F9.4°C 95% - E16091.8 kmh E 1.3 mph2.1 kmh 29.74 in1007.1 mb 0.00 in0.0 mm 0.00 in/hr0.0 mm/hr 0.00 in0.0 mm
07:43 AM 50.7°F10.4°C 49.3°F9.6°C 95% 0.4 mph SE0.6 kmh SE 2.5 mph4.0 kmh 29.74 in1007.1 mb 0.00 in0.0 mm 0.00 in/hr0.0 mm/hr 0.00 in0.0 mm
07:53 AM 50.9°F10.5°C 49.3°F9.6°C 94% - ESE16091.8 kmh ESE 1.6 mph2.6 kmh 29.75 in1007.5 mb 0.00 in0.0 mm 0.00 in/hr0.0 mm/hr 0.00 in0.0 mm
08:03 AM 51.4°F10.8°C 49.5°F9.7°C 93% 0.2 mph SE0.3 kmh SE 2.5 mph4.0 kmh 29.77 in1008.1 mb 0.00 in0.0 mm 0.00 in/hr0.0 mm/hr 0.00 in0.0 mm
08:13 AM 52.5°F11.4°C 50.2°F10.1°C 92% 0.2 mph SE0.3 kmh SE 2.9 mph4.7 kmh 29.77 in1008.1 mb 0.00 in0.0 mm 0.00 in/hr0.0 mm/hr 0.00 in0.0 mm
08:23 AM 52.9°F11.6°C 49.1°F9.5°C 87% 1.3 mph SE2.1 kmh SE 3.6 mph5.8 kmh 29.77 in1008.1 mb 0.00 in0.0 mm 0.00 in/hr0.0 mm/hr 0.00 in0.0 mm
08:33 AM 53.2°F11.8°C 48.6°F9.2°C 84% 0.7 mph SE1.1 kmh SE 2.7 mph4.3 kmh 29.77 in1008.1 mb 0.00 in0.0 mm 0.00 in/hr0.0 mm/hr 0.00 in0.0 mm
08:43 AM 54.7°F12.6°C 49.6°F9.8°C 83% 0.4 mph SE0.6 kmh SE 1.6 mph2.6 kmh 29.77 in1008.1 mb 0.00 in0.0 mm 0.00 in/hr0.0 mm/hr 0.00 in0.0 mm
08:53 AM 56.5°F13.6°C 50.0°F10.0°C 79% 1.3 mph ESE2.1 kmh ESE 2.9 mph4.7 kmh 29.77 in1008.1 mb 0.00 in0.0 mm 0.00 in/hr0.0 mm/hr 0.00 in0.0 mm
09:03 AM 58.5°F14.7°C 49.1°F9.5°C 71% 2.2 mph ESE3.5 kmh ESE 5.4 mph8.7 kmh 29.77 in1008.1 mb 0.00 in0.0 mm 0.00 in/hr0.0 mm/hr 0.00 in0.0 mm
09:13 AM 59.7°F15.4°C 47.5°F8.6°C 64% 2.9 mph ESE4.7 kmh ESE 6.5 mph10.5 kmh 29.77 in1008.1 mb 0.00 in0.0 mm 0.00 in/hr0.0 mm/hr 0.00 in0.0 mm
09:23 AM 61.3°F16.3°C 48.2°F9.0°C 62% 2.2 mph ESE3.5 kmh ESE 6.1 mph9.8 kmh 29.77 in1008.1 mb 0.00 in0.0 mm 0.00 in/hr0.0 mm/hr 0.00 in0.0 mm
09:33 AM 63.1°F17.3°C 48.2°F9.0°C 58% 2.2 mph ESE3.5 kmh ESE 4.3 mph6.9 kmh 29.77 in1008.1 mb 0.00 in0.0 mm 0.00 in/hr0.0 mm/hr 0.00 in0.0 mm
09:43 AM 64.8°F18.2°C 47.3°F8.5°C 53% 1.6 mph ESE2.6 kmh ESE 4.9 mph7.9 kmh 29.75 in1007.5 mb 0.00 in0.0 mm 0.00 in/hr0.0 mm/hr 0.00 in0.0 mm
09:53 AM 65.8°F18.8°C 45.7°F7.6°C 48% 2.2 mph E3.5 kmh E 4.0 mph6.4 kmh 29.74 in1007.1 mb 0.00 in0.0 mm 0.00 in/hr0.0 mm/hr 0.00 in0.0 mm
10:03 AM 66.0°F18.9°C 44.1°F6.7°C 45% 2.7 mph ESE4.3 kmh ESE 5.8 mph9.3 kmh 29.74 in1007.1 mb 0.00 in0.0 mm 0.00 in/hr0.0 mm/hr 0.00 in0.0 mm
10:13 AM 66.4°F19.1°C 43.9°F6.6°C 44% 3.4 mph ESE5.5 kmh ESE 6.5 mph10.5 kmh 29.74 in1007.1 mb 0.00 in0.0 mm 0.00 in/hr0.0 mm/hr 0.00 in0.0 mm
10:23 AM 66.6°F19.2°C 43.3°F6.3°C 43% 3.6 mph SE5.8 kmh SE 7.6 mph12.2 kmh 29.74 in1007.1 mb 0.00 in0.0 mm 0.00 in/hr0.0 mm/hr 0.00 in0.0 mm
10:33 AM 66.9°F19.4°C 43.7°F6.5°C 43% 3.8 mph ESE6.1 kmh ESE 9.9 mph15.9 kmh 29.74 in1007.1 mb 0.00 in0.0 mm 0.00 in/hr0.0 mm/hr 0.00 in0.0 mm
10:43 AM 66.9°F19.4°C 43.0°F6.1°C 42% 4.0 mph ESE6.4 kmh ESE 9.9 mph15.9 kmh 29.74 in1007.1 mb 0.00 in0.0 mm 0.00 in/hr0.0 mm/hr 0.00 in0.0 mm
10:53 AM 67.3°F19.6°C 43.3°F6.3°C 42% 2.9 mph E4.7 kmh E 9.7 mph15.6 kmh 29.74 in1007.1 mb 0.00 in0.0 mm 0.00 in/hr0.0 mm/hr 0.00 in0.0 mm
11:03 AM 67.3°F19.6°C 43.3°F6.3°C 42% 3.8 mph ESE6.1 kmh ESE 9.9 mph15.9 kmh 29.74 in1007.1 mb 0.00 in0.0 mm 0.00 in/hr0.0 mm/hr 0.00 in0.0 mm
11:13 AM 67.6°F19.8°C 43.7°F6.5°C 42% 3.4 mph SE5.5 kmh SE 7.9 mph12.7 kmh 29.74 in1007.1 mb 0.00 in0.0 mm 0.00 in/hr0.0 mm/hr 0.00 in0.0 mm
11:23 AM 68.0°F20.0°C 42.8°F6.0°C 40% 3.1 mph ESE5.0 kmh ESE 7.6 mph12.2 kmh 29.73 in1006.8 mb 0.00 in0.0 mm 0.00 in/hr0.0 mm/hr 0.00 in0.0 mm
11:33 AM 68.4°F20.2°C 42.4°F5.8°C 39% 3.1 mph E5.0 kmh E 7.4 mph11.9 kmh 29.71 in1006.1 mb 0.00 in0.0 mm 0.00 in/hr0.0 mm/hr 0.00 in0.0 mm
11:43 AM 68.9°F20.5°C 43.5°F6.4°C 40% 2.7 mph ESE4.3 kmh ESE 6.5 mph10.5 kmh 29.71 in1006.1 mb 0.00 in0.0 mm 0.00 in/hr0.0 mm/hr 0.00 in0.0 mm
11:53 AM 69.1°F20.6°C 43.2°F6.2°C 39% 3.4 mph E5.5 kmh E 6.5 mph10.5 kmh 29.71 in1006.1 mb 0.00 in0.0 mm 0.00 in/hr0.0 mm/hr 0.00 in0.0 mm
12:03 PM 68.5°F20.3°C 43.2°F6.2°C 40% 4.3 mph SE6.9 kmh SE 12.3 mph19.8 kmh 29.71 in1006.1 mb 0.00 in0.0 mm 0.00 in/hr0.0 mm/hr 0.00 in0.0 mm
12:13 PM 68.7°F20.4°C 44.1°F6.7°C 41% 3.4 mph ESE5.5 kmh ESE 9.7 mph15.6 kmh 29.73 in1006.8 mb 0.00 in0.0 mm 0.00 in/hr0.0 mm/hr 0.00 in0.0 mm
12:23 PM 69.3°F20.7°C 43.9°F6.6°C 40% 3.6 mph E5.8 kmh E 7.4 mph11.9 kmh 29.74 in1007.1 mb 0.00 in0.0 mm 0.00 in/hr0.0 mm/hr 0.00 in0.0 mm
12:33 PM 69.4°F20.8°C 43.3°F6.3°C 39% 3.1 mph E5.0 kmh E 9.4 mph15.1 kmh 29.74 in1007.1 mb 0.00 in0.0 mm 0.00 in/hr0.0 mm/hr 0.00 in0.0 mm
12:43 PM 69.6°F20.9°C 42.8°F6.0°C 38% 3.4 mph E5.5 kmh E 11.0 mph17.7 kmh 29.74 in1007.1 mb 0.00 in0.0 mm 0.00 in/hr0.0 mm/hr 0.00 in0.0 mm
12:53 PM 69.3°F20.7°C 42.6°F5.9°C 38% 4.3 mph ESE6.9 kmh ESE 14.8 mph23.8 kmh 29.74 in1007.1 mb 0.00 in0.0 mm 0.00 in/hr0.0 mm/hr 0.00 in0.0 mm
01:03 PM 68.5°F20.3°C 42.6°F5.9°C 39% 4.5 mph ESE7.2 kmh ESE 11.0 mph17.7 kmh 29.74 in1007.1 mb 0.00 in0.0 mm 0.00 in/hr0.0 mm/hr 0.00 in0.0 mm
01:13 PM 68.0°F20.0°C 43.3°F6.3°C 41% 3.1 mph ESE5.0 kmh ESE 8.8 mph14.2 kmh 29.74 in1007.1 mb 0.00 in0.0 mm 0.00 in/hr0.0 mm/hr 0.00 in0.0 mm
01:23 PM 67.3°F19.6°C 43.3°F6.3°C 42% 2.9 mph E4.7 kmh E 6.1 mph9.8 kmh 29.74 in1007.1 mb 0.00 in0.0 mm 0.00 in/hr0.0 mm/hr 0.00 in0.0 mm
01:33 PM 66.4°F19.1°C 42.6°F5.9°C 42% 3.8 mph SE6.1 kmh SE 7.9 mph12.7 kmh 29.74 in1007.1 mb 0.00 in0.0 mm 0.00 in/hr0.0 mm/hr 0.00 in0.0 mm
01:43 PM 65.7°F18.7°C 44.2°F6.8°C 46% 3.6 mph ESE5.8 kmh ESE 11.0 mph17.7 kmh 29.74 in1007.1 mb 0.00 in0.0 mm 0.00 in/hr0.0 mm/hr 0.00 in0.0 mm
01:53 PM 64.2°F17.9°C 44.6°F7.0°C 49% 4.0 mph ESE6.4 kmh ESE 10.5 mph16.9 kmh 29.74 in1007.1 mb 0.00 in0.0 mm 0.00 in/hr0.0 mm/hr 0.00 in0.0 mm
02:03 PM 62.2°F16.8°C 45.9°F7.7°C 55% 4.7 mph ESE7.6 kmh ESE 13.0 mph20.9 kmh 29.74 in1007.1 mb 0.00 in0.0 mm 0.00 in/hr0.0 mm/hr 0.00 in0.0 mm
02:13 PM 59.5°F15.3°C 47.3°F8.5°C 64% 4.0 mph ESE6.4 kmh ESE 11.0 mph17.7 kmh 29.74 in1007.1 mb 0.00 in0.0 mm 0.00 in/hr0.0 mm/hr 0.00 in0.0 mm
02:23 PM 58.1°F14.5°C 48.4°F9.1°C 70% 3.1 mph ESE5.0 kmh ESE 7.9 mph12.7 kmh 29.74 in1007.1 mb 0.00 in0.0 mm 0.00 in/hr0.0 mm/hr 0.00 in0.0 mm
02:33 PM 57.6°F14.2°C 48.6°F9.2°C 72% 1.6 mph SE2.6 kmh SE 4.3 mph6.9 kmh 29.74 in1007.1 mb 0.00 in0.0 mm 0.00 in/hr0.0 mm/hr 0.00 in0.0 mm
02:43 PM 58.1°F14.5°C 49.5°F9.7°C 73% 1.3 mph ESE2.1 kmh ESE 5.6 mph9.0 kmh 29.74 in1007.1 mb 0.00 in0.0 mm 0.00 in/hr0.0 mm/hr 0.00 in0.0 mm
02:53 PM 59.2°F15.1°C 49.8°F9.9°C 71% 1.6 mph SE2.6 kmh SE 4.5 mph7.2 kmh 29.74 in1007.1 mb 0.00 in0.0 mm 0.00 in/hr0.0 mm/hr 0.00 in0.0 mm
03:03 PM 60.3°F15.7°C 50.4°F10.2°C 70% - ENE16091.8 kmh ENE 1.3 mph2.1 kmh 29.74 in1007.1 mb 0.00 in0.0 mm 0.00 in/hr0.0 mm/hr 0.00 in0.0 mm
03:13 PM 61.7°F16.5°C 50.2°F10.1°C 66% 2.0 mph SE3.2 kmh SE 6.3 mph10.1 kmh 29.74 in1007.1 mb 0.00 in0.0 mm 0.00 in/hr0.0 mm/hr 0.00 in0.0 mm
03:23 PM 61.2°F16.2°C 48.9°F9.4°C 64% 1.6 mph ESE2.6 kmh ESE 5.6 mph9.0 kmh 29.72 in1006.4 mb 0.00 in0.0 mm 0.00 in/hr0.0 mm/hr 0.00 in0.0 mm
03:33 PM 60.6°F15.9°C 48.4°F9.1°C 64% 1.6 mph ESE2.6 kmh ESE 3.8 mph6.1 kmh 29.71 in1006.1 mb 0.00 in0.0 mm 0.00 in/hr0.0 mm/hr 0.00 in0.0 mm
03:43 PM 60.1°F15.6°C 47.8°F8.8°C 64% 0.9 mph SE1.4 kmh SE 3.8 mph6.1 kmh 29.71 in1006.1 mb 0.00 in0.0 mm 0.00 in/hr0.0 mm/hr 0.00 in0.0 mm
03:53 PM 59.7°F15.4°C 48.4°F9.1°C 66% 1.1 mph SE1.8 kmh SE 3.8 mph6.1 kmh 29.71 in1006.1 mb 0.00 in0.0 mm 0.00 in/hr0.0 mm/hr 0.00 in0.0 mm
04:03 PM 59.7°F15.4°C 48.7°F9.3°C 67% 0.4 mph E0.6 kmh E 2.9 mph4.7 kmh 29.71 in1006.1 mb 0.00 in0.0 mm 0.00 in/hr0.0 mm/hr 0.00 in0.0 mm
04:13 PM 60.8°F16.0°C 48.9°F9.4°C 65% 0.4 mph E0.6 kmh E 3.4 mph5.5 kmh 29.71 in1006.1 mb 0.00 in0.0 mm 0.00 in/hr0.0 mm/hr 0.00 in0.0 mm
04:23 PM 62.1°F16.7°C 48.9°F9.4°C 62% 0.9 mph E1.4 kmh E 3.1 mph5.0 kmh 29.70 in1005.8 mb 0.00 in0.0 mm 0.00 in/hr0.0 mm/hr 0.00 in0.0 mm
04:33 PM 62.6°F17.0°C 47.7°F8.7°C 58% 1.8 mph ENE2.9 kmh ENE 4.3 mph6.9 kmh 29.68 in1005.1 mb 0.00 in0.0 mm 0.00 in/hr0.0 mm/hr 0.00 in0.0 mm
04:43 PM 62.6°F17.0°C 45.7°F7.6°C 54% 2.0 mph ENE3.2 kmh ENE 5.6 mph9.0 kmh 29.68 in1005.1 mb 0.00 in0.0 mm 0.00 in/hr0.0 mm/hr 0.00 in0.0 mm
04:53 PM 64.2°F17.9°C 46.8°F8.2°C 53% 1.8 mph E2.9 kmh E 5.4 mph8.7 kmh 29.67 in1004.7 mb 0.00 in0.0 mm 0.00 in/hr0.0 mm/hr 0.00 in0.0 mm
05:03 PM 64.9°F18.3°C 45.3°F7.4°C 49% 2.5 mph E4.0 kmh E 5.4 mph8.7 kmh 29.65 in1004.1 mb 0.00 in0.0 mm 0.00 in/hr0.0 mm/hr 0.00 in0.0 mm
05:13 PM 65.7°F18.7°C 45.0°F7.2°C 47% 3.4 mph NE5.5 kmh NE 6.5 mph10.5 kmh 29.65 in1004.1 mb 0.00 in0.0 mm 0.00 in/hr0.0 mm/hr 0.00 in0.0 mm
05:23 PM 65.5°F18.6°C 44.1°F6.7°C 46% 2.7 mph NNE4.3 kmh NNE 4.9 mph7.9 kmh 29.66 in1004.4 mb 0.00 in0.0 mm 0.00 in/hr0.0 mm/hr 0.00 in0.0 mm
05:33 PM 66.0°F18.9°C 43.5°F6.4°C 44% 3.1 mph N5.0 kmh N 6.1 mph9.8 kmh 29.68 in1005.1 mb 0.00 in0.0 mm 0.00 in/hr0.0 mm/hr 0.00 in0.0 mm
05:43 PM 66.0°F18.9°C 43.5°F6.4°C 44% 2.2 mph NE3.5 kmh NE 6.5 mph10.5 kmh 29.68 in1005.1 mb 0.00 in0.0 mm 0.00 in/hr0.0 mm/hr 0.00 in0.0 mm
05:53 PM 65.5°F18.6°C 43.0°F6.1°C 44% 2.5 mph N4.0 kmh N 5.4 mph8.7 kmh 29.69 in1005.4 mb 0.00 in0.0 mm 0.00 in/hr0.0 mm/hr 0.00 in0.0 mm
06:03 PM 65.1°F18.4°C 43.9°F6.6°C 46% 1.8 mph N2.9 kmh N 3.8 mph6.1 kmh 29.71 in1006.1 mb 0.00 in0.0 mm 0.00 in/hr0.0 mm/hr 0.00 in0.0 mm
06:13 PM 64.4°F18.0°C 44.2°F6.8°C 48% 1.8 mph N2.9 kmh N 3.8 mph6.1 kmh 29.68 in1005.1 mb 0.00 in0.0 mm 0.00 in/hr0.0 mm/hr 0.00 in0.0 mm
06:23 PM 63.5°F17.5°C 44.1°F6.7°C 49% 1.3 mph N2.1 kmh N 4.3 mph6.9 kmh 29.68 in1005.1 mb 0.00 in0.0 mm 0.00 in/hr0.0 mm/hr 0.00 in0.0 mm
06:33 PM 63.0°F17.2°C 44.1°F6.7°C 50% 1.8 mph N2.9 kmh N 7.2 mph11.6 kmh 29.68 in1005.1 mb 0.00 in0.0 mm 0.00 in/hr0.0 mm/hr 0.00 in0.0 mm
06:43 PM 62.2°F16.8°C 43.9°F6.6°C 51% 1.3 mph N2.1 kmh N 3.4 mph5.5 kmh 29.65 in1004.1 mb 0.00 in0.0 mm 0.00 in/hr0.0 mm/hr 0.00 in0.0 mm
06:54 PM 61.5°F16.4°C 44.2°F6.8°C 53% 0.4 mph N0.6 kmh N 2.5 mph4.0 kmh 29.65 in1004.1 mb 0.00 in0.0 mm 0.00 in/hr0.0 mm/hr 0.00 in0.0 mm
07:04 PM 60.4°F15.8°C 47.3°F8.5°C 62% 1.1 mph S1.8 kmh S 2.7 mph4.3 kmh 29.65 in1004.1 mb 0.00 in0.0 mm 0.00 in/hr0.0 mm/hr 0.04 in1.0 mm
07:14 PM 59.2°F15.1°C 50.2°F10.1°C 72% 2.9 mph SSW4.7 kmh SSW 8.8 mph14.2 kmh 29.67 in1004.7 mb 0.00 in0.0 mm 0.00 in/hr0.0 mm/hr 0.04 in1.0 mm
07:24 PM 57.7°F14.3°C 51.3°F10.7°C 79% 3.8 mph SW6.1 kmh SW 10.3 mph16.6 kmh 29.68 in1005.1 mb 0.11 in2.8 mm 0.66 in/hr16.8 mm/hr 0.08 in2.0 mm
07:34 PM 56.7°F13.7°C 51.6°F10.9°C 83% 3.6 mph SSW5.8 kmh SSW 10.3 mph16.6 kmh 29.68 in1005.1 mb 0.31 in7.9 mm 1.20 in/hr30.5 mm/hr 0.16 in4.1 mm
07:44 PM 55.9°F13.3°C 52.5°F11.4°C 88% 2.7 mph S4.3 kmh S 4.3 mph6.9 kmh 29.70 in1005.8 mb 0.31 in7.9 mm 0.00 in/hr0.0 mm/hr 0.21 in5.3 mm
07:54 PM 55.4°F13.0°C 51.6°F10.9°C 87% 0.4 mph E0.6 kmh E 3.1 mph5.0 kmh 29.72 in1006.4 mb 1.02 in25.9 mm 4.25 in/hr108.0 mm/hr 0.37 in9.4 mm
08:04 PM 55.0°F12.8°C 51.3°F10.7°C 87% - E16091.8 kmh E -- 29.74 in1007.1 mb 0.00 in0.0 mm 0.00 in/hr0.0 mm/hr 0.37 in9.4 mm
08:14 PM 54.7°F12.6°C 50.5°F10.3°C 86% 0.2 mph N0.3 kmh N 1.6 mph2.6 kmh 29.71 in1006.1 mb 0.70 in17.8 mm 4.20 in/hr106.7 mm/hr 0.41 in10.4 mm
08:24 PM 54.5°F12.5°C 51.3°F10.7°C 89% 1.1 mph NW1.8 kmh NW 2.7 mph4.3 kmh 29.71 in1006.1 mb 0.27 in6.9 mm 0.00 in/hr0.0 mm/hr 0.46 in11.7 mm
08:34 PM 54.5°F12.5°C 52.0°F11.1°C 91% - NNW16091.8 kmh NNW -- 29.71 in1006.1 mb 0.19 in4.8 mm 0.00 in/hr0.0 mm/hr 0.50 in12.7 mm
08:44 PM 54.5°F12.5°C 51.6°F10.9°C 90% 0.7 mph NW1.1 kmh NW 2.9 mph4.7 kmh 29.73 in1006.8 mb 0.00 in0.0 mm 0.00 in/hr0.0 mm/hr 0.50 in12.7 mm
08:54 PM 54.3°F12.4°C 52.0°F11.1°C 92% 1.1 mph NW1.8 kmh NW 2.7 mph4.3 kmh 29.72 in1006.4 mb 0.00 in0.0 mm 0.00 in/hr0.0 mm/hr 0.50 in12.7 mm
09:04 PM 54.3°F12.4°C 52.0°F11.1°C 92% 0.4 mph WNW0.6 kmh WNW 2.2 mph3.5 kmh 29.71 in1006.1 mb 0.00 in0.0 mm 0.00 in/hr0.0 mm/hr 0.50 in12.7 mm
09:14 PM 54.1°F12.3°C 51.8°F11.0°C 92% - E16091.8 kmh E -- 29.71 in1006.1 mb 0.00 in0.0 mm 0.00 in/hr0.0 mm/hr 0.50 in12.7 mm
09:24 PM 54.1°F12.3°C 52.2°F11.2°C 93% 0.2 mph SSW0.3 kmh SSW 2.2 mph3.5 kmh 29.72 in1006.4 mb 0.19 in4.8 mm 1.13 in/hr28.7 mm/hr 0.54 in13.7 mm
09:34 PM 54.1°F12.3°C 52.2°F11.2°C 93% 0.4 mph SSE0.6 kmh SSE 2.2 mph3.5 kmh 29.74 in1007.1 mb 0.00 in0.0 mm 0.00 in/hr0.0 mm/hr 0.54 in13.7 mm
09:44 PM 54.0°F12.2°C 52.3°F11.3°C 94% 0.2 mph SSW0.3 kmh SSW 2.0 mph3.2 kmh 29.71 in1006.1 mb 0.00 in0.0 mm 0.00 in/hr0.0 mm/hr 0.54 in13.7 mm
09:54 PM 54.0°F12.2°C 52.3°F11.3°C 94% 0.2 mph SSE0.3 kmh SSE 1.3 mph2.1 kmh 29.71 in1006.1 mb 0.00 in0.0 mm 0.00 in/hr0.0 mm/hr 0.54 in13.7 mm
10:04 PM 53.8°F12.1°C 52.2°F11.2°C 94% - SSE16091.8 kmh SSE 1.1 mph1.8 kmh 29.71 in1006.1 mb 0.00 in0.0 mm 0.00 in/hr0.0 mm/hr 0.54 in13.7 mm
10:14 PM 53.8°F12.1°C 52.2°F11.2°C 94% - E16091.8 kmh E -- 29.73 in1006.8 mb 0.00 in0.0 mm 0.00 in/hr0.0 mm/hr 0.54 in13.7 mm
10:24 PM 53.6°F12.0°C 52.0°F11.1°C 94% - E16091.8 kmh E -- 29.72 in1006.4 mb 0.00 in0.0 mm 0.00 in/hr0.0 mm/hr 0.54 in13.7 mm
10:34 PM 53.4°F11.9°C 51.8°F11.0°C 94% - E16091.8 kmh E 1.1 mph1.8 kmh 29.71 in1006.1 mb 0.00 in0.0 mm 0.00 in/hr0.0 mm/hr 0.54 in13.7 mm
10:44 PM 53.2°F11.8°C 51.8°F11.0°C 95% - E16091.8 kmh E 0.9 mph1.4 kmh 29.71 in1006.1 mb 0.00 in0.0 mm 0.00 in/hr0.0 mm/hr 0.54 in13.7 mm
10:54 PM 53.2°F11.8°C 51.8°F11.0°C 95% - E16091.8 kmh E 1.1 mph1.8 kmh 29.70 in1005.8 mb 0.00 in0.0 mm 0.00 in/hr0.0 mm/hr 0.54 in13.7 mm